createdAt,value
2019-02-23T00:00:12.514Z,13.60
2019-02-23T00:05:07.719Z,13.87
2019-02-23T00:10:06.019Z,15.03
2019-02-23T00:15:07.079Z,13.97
2019-02-23T00:20:05.881Z,14.07
2019-02-23T00:25:01.821Z,14.03
2019-02-23T00:29:57.740Z,15.53
2019-02-23T00:34:53.683Z,15.07
2019-02-23T00:39:49.643Z,15.63
2019-02-23T00:44:46.471Z,16.10
2019-02-23T00:49:42.369Z,14.70
2019-02-23T00:54:38.266Z,16.47
2019-02-23T00:59:34.210Z,15.47
2019-02-23T01:04:30.106Z,16.30
2019-02-23T01:09:26.020Z,16.73
2019-02-23T01:14:21.920Z,16.87
2019-02-23T01:19:17.908Z,16.83
2019-02-23T01:24:13.814Z,17.43
2019-02-23T01:29:09.712Z,18.00
2019-02-23T01:34:05.819Z,17.17
2019-02-23T01:39:01.920Z,15.43
2019-02-23T01:44:00.403Z,16.20
2019-02-23T01:48:55.629Z,16.47
2019-02-23T01:53:51.531Z,16.87
2019-02-23T01:58:47.457Z,17.63
2019-02-23T02:03:43.357Z,17.67
2019-02-23T02:08:39.656Z,17.50
2019-02-23T02:13:35.658Z,17.10
2019-02-23T02:18:31.556Z,16.43
2019-02-23T02:23:27.449Z,17.70
2019-02-23T02:28:23.342Z,18.17
2019-02-23T02:33:19.242Z,17.90
2019-02-23T02:38:15.345Z,16.37
2019-02-23T02:43:11.243Z,16.17
2019-02-23T02:48:07.147Z,16.17
2019-02-23T02:53:03.019Z,15.77
2019-02-23T02:57:58.953Z,17.70
2019-02-23T03:02:54.827Z,14.40
2019-02-23T03:07:50.734Z,13.67
2019-02-23T03:12:46.697Z,15.17
2019-02-23T03:17:42.591Z,13.80
2019-02-23T03:22:38.588Z,14.07
2019-02-23T03:27:34.591Z,14.13
2019-02-23T03:32:30.486Z,12.63
2019-02-23T03:37:26.404Z,13.73
2019-02-23T03:42:22.296Z,12.83
2019-02-23T03:47:18.196Z,12.37
2019-02-23T03:52:14.093Z,12.33
2019-02-23T03:57:10.047Z,12.60
2019-02-23T04:02:06.131Z,13.13
2019-02-23T04:07:02.122Z,13.47
2019-02-23T04:11:58.016Z,14.33
2019-02-23T04:16:53.912Z,13.43
2019-02-23T04:21:49.811Z,13.80
2019-02-23T04:26:45.818Z,13.10
2019-02-23T04:31:41.699Z,14.17
2019-02-23T04:36:37.596Z,14.60
2019-02-23T04:41:33.489Z,16.50
2019-02-23T04:46:29.388Z,16.10
2019-02-23T04:51:25.487Z,15.00
2019-02-23T04:56:21.417Z,14.87
2019-02-23T05:01:17.317Z,14.23
2019-02-23T05:06:13.294Z,14.90
2019-02-23T05:11:09.188Z,14.33
2019-02-23T05:16:05.082Z,14.10
2019-02-23T05:21:00.979Z,14.60
2019-02-23T05:25:56.900Z,14.60
2019-02-23T05:30:52.798Z,15.03
2019-02-23T05:35:48.843Z,14.27
2019-02-23T05:40:44.761Z,15.20
2019-02-23T05:45:41.265Z,17.10
2019-02-23T05:50:37.125Z,15.10
2019-02-23T05:55:33.029Z,18.47
2019-02-23T06:00:29.014Z,15.23
2019-02-23T06:05:24.915Z,16.40
2019-02-23T06:10:20.811Z,15.83
2019-02-23T06:15:18.835Z,14.40
2019-02-23T06:20:14.836Z,15.53
2019-02-23T06:25:10.750Z,16.77
2019-02-23T06:30:11.378Z,18.50
2019-02-23T06:35:08.653Z,17.67
2019-02-23T06:40:07.294Z,18.20
2019-02-23T06:45:10.102Z,17.90
2019-02-23T06:50:06.591Z,18.07
2019-02-23T06:55:02.686Z,18.90
2019-02-23T06:59:58.577Z,17.80
2019-02-23T07:04:54.472Z,17.70
2019-02-23T07:09:50.371Z,19.47
2019-02-23T07:14:50.531Z,20.00
2019-02-23T07:19:46.563Z,18.77
2019-02-23T07:24:42.562Z,20.53
2019-02-23T07:29:38.574Z,19.83
2019-02-23T07:34:34.466Z,19.00
2019-02-23T07:39:30.374Z,20.53
2019-02-23T07:44:26.269Z,20.63
2019-02-23T07:49:22.194Z,21.47
2019-02-23T07:54:18.087Z,22.50
2019-02-23T07:59:14.070Z,22.07
2019-02-23T08:04:09.970Z,20.57
2019-02-23T08:09:06.863Z,21.70
2019-02-23T08:14:02.807Z,22.20
2019-02-23T08:18:59.218Z,21.10
2019-02-23T08:23:55.198Z,22.60
2019-02-23T08:28:51.540Z,22.57
2019-02-23T08:33:47.487Z,20.87
2019-02-23T08:38:43.787Z,21.27
2019-02-23T08:43:39.866Z,22.80
2019-02-23T08:48:36.804Z,22.93
2019-02-23T08:53:33.862Z,23.20
2019-02-23T08:58:29.859Z,23.67
2019-02-23T09:03:25.753Z,23.47
2019-02-23T09:08:21.637Z,22.20
2019-02-23T09:13:17.547Z,23.33
2019-02-23T09:18:14.912Z,23.90
2019-02-23T09:23:10.868Z,20.27
2019-02-23T09:28:06.790Z,21.60
2019-02-23T09:33:02.818Z,22.20
2019-02-23T09:37:59.621Z,20.63
2019-02-23T09:42:55.531Z,21.23
2019-02-23T09:47:51.472Z,22.47
2019-02-23T09:52:47.472Z,21.67
2019-02-23T09:57:43.450Z,22.20
2019-02-23T10:02:39.389Z,20.20
2019-02-23T10:07:36.358Z,22.40
2019-02-23T10:12:33.326Z,20.63
2019-02-23T10:17:29.362Z,20.53
2019-02-23T10:22:27.299Z,19.80
2019-02-23T10:27:23.417Z,17.43
2019-02-23T10:32:20.556Z,18.40
2019-02-23T10:37:16.559Z,19.20
2019-02-23T10:42:13.869Z,18.93
2019-02-23T10:47:10.037Z,19.07
2019-02-23T10:52:06.114Z,18.80
2019-02-23T10:57:02.087Z,17.63
2019-02-23T11:01:58.051Z,16.03
2019-02-23T11:06:55.165Z,19.03
2019-02-23T11:11:51.165Z,17.60
2019-02-23T11:16:47.074Z,17.20
2019-02-23T11:21:43.010Z,17.83
2019-02-23T11:26:38.947Z,17.77
2019-02-23T11:31:34.838Z,17.10
2019-02-23T11:36:30.732Z,15.77
2019-02-23T11:41:26.658Z,17.13
2019-02-23T11:46:22.560Z,15.13
2019-02-23T11:51:18.462Z,15.17
2019-02-23T11:56:14.368Z,14.93
2019-02-23T12:01:11.422Z,14.93
2019-02-23T12:06:07.373Z,13.93
2019-02-23T12:11:03.318Z,12.57
2019-02-23T12:15:59.222Z,12.30
2019-02-23T12:20:55.170Z,12.13
2019-02-23T12:25:51.164Z,12.07
2019-02-23T12:30:47.055Z,11.80
2019-02-23T12:35:43.005Z,11.00
2019-02-23T12:40:47.519Z,11.70
2019-02-23T12:45:44.379Z,11.93
2019-02-23T12:50:40.355Z,11.50
2019-02-23T12:55:36.388Z,11.73
2019-02-23T13:00:32.328Z,11.70
2019-02-23T13:05:28.463Z,10.63
2019-02-23T13:10:26.746Z,11.53
2019-02-23T13:15:48.898Z,9.47
2019-02-23T13:21:01.063Z,9.07
2019-02-23T13:26:10.157Z,9.50
2019-02-23T13:31:22.129Z,8.70
2019-02-23T13:36:43.193Z,10.63
2019-02-23T13:41:51.741Z,8.57
2019-02-23T13:47:00.694Z,8.50
2019-02-23T13:52:03.424Z,8.20
2019-02-23T13:57:17.717Z,8.80
2019-02-23T14:02:34.211Z,7.13
2019-02-23T14:07:48.793Z,7.70
2019-02-23T14:13:13.048Z,6.53
2019-02-23T14:18:24.623Z,6.33
2019-02-23T14:23:36.286Z,7.13
2019-02-23T14:28:41.998Z,7.80
2019-02-23T14:33:47.753Z,7.43
2019-02-23T14:39:02.316Z,8.90
2019-02-23T14:44:20.509Z,7.70
2019-02-23T14:49:25.991Z,8.00
2019-02-23T14:54:31.499Z,7.53
2019-02-23T14:59:34.030Z,8.00
2019-02-23T15:04:51.647Z,7.57
2019-02-23T15:10:14.204Z,7.70
2019-02-23T15:15:29.725Z,7.57
2019-02-23T15:20:32.153Z,7.77
2019-02-23T15:26:09.553Z,9.17
2019-02-23T15:31:24.404Z,8.00
2019-02-23T15:36:40.992Z,7.83
2019-02-23T15:41:56.281Z,8.70
2019-02-23T15:47:16.871Z,8.40
2019-02-23T15:52:15.884Z,8.10
2019-02-23T15:57:11.851Z,9.23
2019-02-23T16:02:08.009Z,9.30
2019-02-23T16:07:04.924Z,9.30
2019-02-23T16:12:01.690Z,8.83
2019-02-23T16:16:59.387Z,8.90
2019-02-23T16:21:57.687Z,8.63
2019-02-23T16:26:53.787Z,8.77
2019-02-23T16:31:50.571Z,9.30
2019-02-23T16:36:48.351Z,10.80
2019-02-23T16:41:45.175Z,9.30
2019-02-23T16:46:41.843Z,9.20
2019-02-23T16:51:38.823Z,9.43
2019-02-23T16:56:34.879Z,10.17
2019-02-23T17:01:31.371Z,9.27
2019-02-23T17:06:27.464Z,10.00
2019-02-23T17:11:24.113Z,10.17
2019-02-23T17:16:20.110Z,9.93
2019-02-23T17:21:16.102Z,10.50
2019-02-23T17:26:12.635Z,10.17
2019-02-23T17:31:10.071Z,9.80
2019-02-23T17:36:07.199Z,8.83
2019-02-23T17:41:05.938Z,9.90
2019-02-23T17:46:05.539Z,10.73
2019-02-23T17:51:01.674Z,9.20
2019-02-23T17:55:57.606Z,10.20
2019-02-23T18:00:54.254Z,10.97
2019-02-23T18:05:52.399Z,10.77
2019-02-23T18:10:49.202Z,11.43
2019-02-23T18:15:49.836Z,9.30
2019-02-23T18:20:48.360Z,10.50
2019-02-23T18:25:46.051Z,11.00
2019-02-23T18:30:42.053Z,11.80
2019-02-23T18:35:39.053Z,10.30
2019-02-23T18:40:35.081Z,10.60
2019-02-23T18:45:35.872Z,10.57
2019-02-23T18:50:31.895Z,10.07
2019-02-23T18:55:27.809Z,9.23
2019-02-23T19:00:43.611Z,10.80
2019-02-23T19:05:49.694Z,10.40
2019-02-23T19:10:46.495Z,9.07
2019-02-23T19:15:46.850Z,10.50
2019-02-23T19:20:42.847Z,11.77
2019-02-23T19:25:38.750Z,11.23
2019-02-23T19:30:34.741Z,11.30
2019-02-23T19:35:30.643Z,11.37
2019-02-23T19:40:26.591Z,11.27
2019-02-23T19:45:24.353Z,10.70
2019-02-23T19:50:24.085Z,9.90
2019-02-23T19:55:20.060Z,9.93
2019-02-23T20:00:15.963Z,10.13
2019-02-23T20:05:11.915Z,11.20
2019-02-23T20:10:09.307Z,11.13
2019-02-23T20:15:13.522Z,10.77
2019-02-23T20:20:09.515Z,11.47
2019-02-23T20:25:07.024Z,9.70
2019-02-23T20:30:06.223Z,9.57
2019-02-23T20:35:02.325Z,10.40
2019-02-23T20:39:58.225Z,11.10
2019-02-23T20:44:54.224Z,9.70
2019-02-23T20:49:50.414Z,9.70
2019-02-23T20:54:47.213Z,10.30
2019-02-23T20:59:43.202Z,9.43
2019-02-23T21:04:39.108Z,11.27
2019-02-23T21:09:35.011Z,9.80
2019-02-23T21:14:30.909Z,10.00
2019-02-23T21:19:26.809Z,9.50
2019-02-23T21:24:22.708Z,9.00
2019-02-23T21:29:18.743Z,9.70
2019-02-23T21:34:14.650Z,9.73
2019-02-23T21:39:10.545Z,8.60
2019-02-23T21:44:07.287Z,8.57
2019-02-23T21:49:03.183Z,9.47
2019-02-23T21:53:59.157Z,9.23
2019-02-23T21:58:55.043Z,9.80
2019-02-23T22:03:50.944Z,10.40
2019-02-23T22:08:46.836Z,8.80
2019-02-23T22:13:42.809Z,9.80
2019-02-23T22:18:38.702Z,9.10
2019-02-23T22:23:34.613Z,9.10
2019-02-23T22:28:30.549Z,8.77
2019-02-23T22:33:26.445Z,8.90
2019-02-23T22:38:22.347Z,8.73
2019-02-23T22:43:18.242Z,8.03
2019-02-23T22:48:14.166Z,9.90
2019-02-23T22:53:10.069Z,9.17
2019-02-23T22:58:05.964Z,7.97
2019-02-23T23:03:01.876Z,9.03
2019-02-23T23:07:57.777Z,9.47
2019-02-23T23:12:53.669Z,9.30
2019-02-23T23:17:49.585Z,8.90
2019-02-23T23:22:45.478Z,8.70
2019-02-23T23:27:49.099Z,8.80
2019-02-23T23:32:39.297Z,8.23
2019-02-23T23:37:35.191Z,8.50
2019-02-23T23:42:31.097Z,9.37
2019-02-23T23:47:26.990Z,8.77
2019-02-23T23:52:22.891Z,9.17
2019-02-23T23:57:18.785Z,8.90
